Hovedside
METAR-TAF:

METAR-TAF

Lufthavner :

Indianapolis, Indiana, USA

Indianapolis internasjonale lufthavn

breddegrad: 39-43-30N, lengdegrad: 086-16-55W, høyde over havet: 243 m

Gjeldene værobservasjon

Denne rapporten ble laget for 1 time og 6 minutter siden, klokken 00:54 UTC
Vind 13 kt fra Nord-nordvest
Temperatur 13°C
Luftfuktighet 38%
Trykk 1015 hPa
Sikt: 16.1 km
Brutte skyer i en høyde av 24000 ft

METAR: KIND 260054Z 34013KT 10SM BKN240 13/M01 A2997 RMK AO2 SLP149 T01281006

Tid: 22:00 (02:00 UTC)

Varsel

Denne rapporten ble laget for 2 timer og 40 minutter siden, klokken 23:20 UTC
Varsel gyldig fra 26. klokken 00 UTC til 27. klokken 06 UTC
Vind 9 kt fra Nord-nordvest
Sikt: 10 km
Få skyer i en høyde av 6000 ft
Brutte skyer i en høyde av 25000 ft
Fra 26. klokken 0600 UTC
Vind 5 kt fra skiftende retning
Sikt: 10 km
Spredte skyer i en høyde av 25000 ft

TAF: KIND 252320Z 2600/2706 34009KT P6SM FEW060 BKN250 FM260600 VRB05KT P6SM SCT250

Værobservasjoner og værvarsel for over 4000 flyplasser (METAR- og TAF-rapporter).

Tilgjengelige stasjoner er representert av de røde og gule prikkene på kartet.

Hold musepekeren over prikken for å se navnet på stasjonen.

Klikk så for å se værobservasjoner og -varsler.

For å forandre kartet kan du klikke på den grønne knappen med svart kryss for å zoome inn, på den grønne knappen med strek for å zoome ut, eller på de grønne pilene for å se tilstøtende kart.


METAR-TAF: